Time;durP1;ratioP1;P1;durP2;ratioP2;P2;SDS_P1;SDS_P2;PMS_P1;PMS_P2;Temp;Humidity;BMP_temperature;BMP_pressure;BME280_temperature;BME280_humidity;BME280_pressure;Samples;Min_cycle;Max_cycle;Signal;HPM_P1;HPM_P2
2023/12/22 00:01:27;;;;;;;44.78;13.00;;;;;;;;;;5016315;28;20014;-43
2023/12/22 00:03:54;;;;;;;43.78;14.88;;;;;;;;;;5020588;28;20032;-42
2023/12/22 00:06:21;;;;;;;50.00;21.38;;;;;;;;;;5015798;28;20387;-44
2023/12/22 00:08:48;;;;;;;76.35;28.52;;;;;;;;;;5033771;28;20052;-42
2023/12/22 00:11:15;;;;;;;90.38;33.63;;;;;;;;;;5032679;28;20048;-43
2023/12/22 00:13:42;;;;;;;92.00;37.33;;;;;;;;;;5026912;28;20034;-43
2023/12/22 00:16:11;;;;;;;110.60;41.20;;;;;;;;;;5015318;28;20145;-44
2023/12/22 00:18:38;;;;;;;134.18;49.25;;;;;;;;;;5014750;28;20116;-43
2023/12/22 00:21:05;;;;;;;128.30;49.10;;;;;;;;;;5014647;28;20022;-43
2023/12/22 00:23:35;;;;;;;139.35;49.45;;;;;;;;;;5014013;28;20026;-42
2023/12/22 00:26:02;;;;;;;148.57;53.03;;;;;;;;;;5030004;28;20467;-44
2023/12/22 00:28:31;;;;;;;182.93;60.58;;;;;;;;;;5032156;28;20100;-43
2023/12/22 00:30:59;;;;;;;247.05;77.65;;;;;;;;;;5030024;28;20557;-43
2023/12/22 00:33:26;;;;;;;263.33;77.85;;;;;;;;;;5020671;28;20041;-43
2023/12/22 00:35:53;;;;;;;290.42;85.05;;;;;;;;;;5024741;28;20112;-43
2023/12/22 00:38:20;;;;;;;247.13;75.97;;;;;;;;;;5032407;28;20435;-42
2023/12/22 00:40:47;;;;;;;236.43;73.93;;;;;;;;;;5030950;28;20036;-43
2023/12/22 00:43:14;;;;;;;235.57;70.85;;;;;;;;;;5032467;28;20029;-42
2023/12/22 00:45:41;;;;;;;229.70;70.10;;;;;;;;;;5030310;28;20025;-42
2023/12/22 00:48:08;;;;;;;207.43;68.00;;;;;;;;;;5032223;28;20416;-42
2023/12/22 00:50:35;;;;;;;207.85;64.55;;;;;;;;;;5029449;28;20104;-45
2023/12/22 00:53:02;;;;;;;195.32;61.15;;;;;;;;;;5030981;28;20075;-42
2023/12/22 00:55:29;;;;;;;193.43;60.65;;;;;;;;;;5020566;28;20093;-43
2023/12/22 00:57:56;;;;;;;184.98;60.17;;;;;;;;;;5032023;28;20053;-43
2023/12/22 01:00:23;;;;;;;177.60;56.08;;;;;;;;;;5032455;28;20025;-45
2023/12/22 01:02:49;;;;;;;173.40;57.50;;;;;;;;;;5031277;28;20040;-42
2023/12/22 01:05:16;;;;;;;170.98;54.95;;;;;;;;;;5020470;28;20025;-43
2023/12/22 01:07:43;;;;;;;156.55;53.17;;;;;;;;;;5025446;28;20388;-42
2023/12/22 01:10:10;;;;;;;160.82;53.50;;;;;;;;;;5032235;28;20080;-44
2023/12/22 01:12:37;;;;;;;147.95;50.38;;;;;;;;;;5028924;28;20037;-43
2023/12/22 01:15:05;;;;;;;149.80;49.28;;;;;;;;;;5032851;28;20030;-41
2023/12/22 01:17:32;;;;;;;141.07;49.28;;;;;;;;;;5028036;28;20690;-44
2023/12/22 01:19:59;;;;;;;144.90;47.75;;;;;;;;;;5014062;28;20022;-41
2023/12/22 01:22:25;;;;;;;148.77;48.80;;;;;;;;;;5031928;28;20479;-43
2023/12/22 01:24:52;;;;;;;145.13;49.40;;;;;;;;;;5032109;28;20025;-41
2023/12/22 01:27:19;;;;;;;140.98;43.88;;;;;;;;;;5031802;28;20029;-43
2023/12/22 01:29:46;;;;;;;137.50;46.22;;;;;;;;;;5031776;28;20034;-43
2023/12/22 01:32:13;;;;;;;118.78;42.22;;;;;;;;;;5031756;28;20079;-42
2023/12/22 01:34:40;;;;;;;132.88;43.00;;;;;;;;;;5031627;28;20037;-44
2023/12/22 01:37:07;;;;;;;116.80;39.90;;;;;;;;;;5013811;28;20579;-42
2023/12/22 01:39:34;;;;;;;107.10;38.13;;;;;;;;;;5031274;28;20463;-42
2023/12/22 01:42:01;;;;;;;91.70;29.10;;;;;;;;;;5030115;28;20033;-42
2023/12/22 01:44:28;;;;;;;71.93;24.10;;;;;;;;;;5030430;28;20037;-42
2023/12/22 01:46:55;;;;;;;67.18;19.80;;;;;;;;;;5030766;28;20029;-43
2023/12/22 01:49:23;;;;;;;61.47;18.02;;;;;;;;;;5030546;28;20069;-45
2023/12/22 01:51:50;;;;;;;40.03;15.00;;;;;;;;;;5022790;28;20084;-44
2023/12/22 01:54:18;;;;;;;40.53;14.63;;;;;;;;;;5011802;28;20551;-42
2023/12/22 01:56:45;;;;;;;45.35;14.00;;;;;;;;;;5011532;28;20034;-44
2023/12/22 01:59:12;;;;;;;44.40;15.35;;;;;;;;;;5009635;28;20034;-42
2023/12/22 02:01:40;;;;;;;53.08;17.60;;;;;;;;;;5012124;28;20484;-41
2023/12/22 02:04:07;;;;;;;49.97;17.23;;;;;;;;;;5011395;28;20532;-43
2023/12/22 02:06:36;;;;;;;48.22;17.10;;;;;;;;;;5014529;28;20061;-41
2023/12/22 02:09:04;;;;;;;50.03;18.98;;;;;;;;;;5012077;28;20046;-41
2023/12/22 02:11:31;;;;;;;52.88;19.42;;;;;;;;;;5031955;28;20046;-42
2023/12/22 02:13:58;;;;;;;51.70;19.88;;;;;;;;;;5032297;28;20108;-41
2023/12/22 02:16:32;;;;;;;55.95;20.88;;;;;;;;;;5032471;28;20025;-41
2023/12/22 02:19:00;;;;;;;54.90;20.20;;;;;;;;;;5032193;28;20037;-41
2023/12/22 02:21:27;;;;;;;63.78;21.20;;;;;;;;;;5032270;28;20392;-41
2023/12/22 02:23:54;;;;;;;58.88;20.85;;;;;;;;;;5032037;28;20494;-41
2023/12/22 02:26:35;;;;;;;56.17;20.65;;;;;;;;;;5029249;28;20116;-43
2023/12/22 02:29:02;;;;;;;51.85;19.85;;;;;;;;;;5012330;28;20384;-41
2023/12/22 02:31:44;;;;;;;55.15;21.50;;;;;;;;;;4994577;28;20041;-41
2023/12/22 02:34:14;;;;;;;52.03;18.58;;;;;;;;;;5012118;28;20045;-41
2023/12/22 02:36:41;;;;;;;49.08;18.20;;;;;;;;;;5012204;28;20025;-41
2023/12/22 02:39:09;;;;;;;49.05;18.70;;;;;;;;;;5012236;28;20041;-41
2023/12/22 02:41:36;;;;;;;45.03;18.13;;;;;;;;;;5011974;28;20042;-41
2023/12/22 02:44:03;;;;;;;46.80;16.38;;;;;;;;;;5012055;28;20033;-41
2023/12/22 02:46:30;;;;;;;45.40;16.10;;;;;;;;;;5012165;28;20484;-41
2023/12/22 02:48:57;;;;;;;34.53;12.77;;;;;;;;;;5011938;28;20029;-41
2023/12/22 02:51:25;;;;;;;28.70;12.18;;;;;;;;;;5012080;28;20037;-42
2023/12/22 02:53:52;;;;;;;21.23;8.77;;;;;;;;;;5012012;28;20061;-41
2023/12/22 02:56:19;;;;;;;19.02;7.50;;;;;;;;;;5006881;22;20827;-43
2023/12/22 02:58:46;;;;;;;21.67;8.38;;;;;;;;;;5010428;28;20534;-44
2023/12/22 03:01:13;;;;;;;14.98;6.30;;;;;;;;;;5011884;28;20022;-43
2023/12/22 03:03:39;;;;;;;13.25;4.78;;;;;;;;;;5011872;28;20041;-44
2023/12/22 03:06:07;;;;;;;13.25;4.25;;;;;;;;;;5011679;28;20045;-43
2023/12/22 03:08:34;;;;;;;8.38;3.55;;;;;;;;;;5012093;28;20044;-44
2023/12/22 03:11:01;;;;;;;11.00;3.15;;;;;;;;;;5011709;28;20451;-44
2023/12/22 03:13:27;;;;;;;11.38;3.17;;;;;;;;;;5011189;28;20442;-43
2023/12/22 03:15:54;;;;;;;8.27;3.05;;;;;;;;;;5011808;28;20076;-44
2023/12/22 03:18:21;;;;;;;7.20;2.47;;;;;;;;;;5011934;28;20022;-45
2023/12/22 03:20:48;;;;;;;6.25;2.25;;;;;;;;;;5011899;28;20046;-43
2023/12/22 03:23:15;;;;;;;7.00;2.28;;;;;;;;;;5011856;28;20129;-43
2023/12/22 03:25:42;;;;;;;4.82;2.00;;;;;;;;;;5011462;28;20033;-43
2023/12/22 03:28:09;;;;;;;4.22;1.75;;;;;;;;;;5011594;28;20026;-43
2023/12/22 03:30:37;;;;;;;5.40;1.75;;;;;;;;;;5011683;28;20125;-43
2023/12/22 03:33:06;;;;;;;4.40;1.70;;;;;;;;;;5011473;28;20036;-44
2023/12/22 03:35:33;;;;;;;4.60;1.52;;;;;;;;;;5011501;28;20395;-43
2023/12/22 03:38:00;;;;;;;5.28;1.60;;;;;;;;;;5011701;28;20050;-43
2023/12/22 03:40:27;;;;;;;4.35;1.52;;;;;;;;;;5011601;28;20601;-43
2023/12/22 03:42:54;;;;;;;3.53;1.58;;;;;;;;;;5011600;28;20026;-43
2023/12/22 03:45:21;;;;;;;3.75;1.50;;;;;;;;;;5011443;28;20022;-43
2023/12/22 03:47:48;;;;;;;5.63;1.70;;;;;;;;;;5011353;28;20029;-44
2023/12/22 03:50:15;;;;;;;7.05;1.50;;;;;;;;;;5011555;28;20034;-43
2023/12/22 03:52:42;;;;;;;4.53;1.45;;;;;;;;;;5011596;28;20125;-44
2023/12/22 03:55:09;;;;;;;3.58;1.45;;;;;;;;;;5011313;28;20058;-44
2023/12/22 03:57:36;;;;;;;3.17;1.60;;;;;;;;;;5011590;28;20098;-43
2023/12/22 04:00:04;;;;;;;5.32;1.60;;;;;;;;;;5011460;28;20032;-43
2023/12/22 04:02:31;;;;;;;4.35;1.20;;;;;;;;;;5011362;28;20480;-43
2023/12/22 04:04:58;;;;;;;3.35;1.30;;;;;;;;;;5011498;28;20112;-45
2023/12/22 04:07:25;;;;;;;2.88;1.10;;;;;;;;;;5011435;28;20030;-43
2023/12/22 04:09:51;;;;;;;6.15;1.52;;;;;;;;;;5011401;28;20026;-43
2023/12/22 04:12:18;;;;;;;3.60;1.30;;;;;;;;;;5011379;28;20030;-43
2023/12/22 04:14:45;;;;;;;3.42;1.13;;;;;;;;;;5011306;28;20088;-43
2023/12/22 04:17:12;;;;;;;6.25;1.25;;;;;;;;;;5011380;28;20022;-44
2023/12/22 04:19:39;;;;;;;2.97;1.05;;;;;;;;;;5011346;28;20026;-43
2023/12/22 04:22:06;;;;;;;3.72;1.10;;;;;;;;;;5011205;28;20022;-43
2023/12/22 04:24:33;;;;;;;3.20;1.02;;;;;;;;;;5011222;28;20025;-47
2023/12/22 04:27:00;;;;;;;4.32;1.05;;;;;;;;;;5014308;28;20022;-44
2023/12/22 04:29:27;;;;;;;3.03;0.90;;;;;;;;;;5014819;28;20033;-44
2023/12/22 04:31:54;;;;;;;2.65;1.00;;;;;;;;;;5014598;28;20062;-43
2023/12/22 04:34:21;;;;;;;2.85;0.77;;;;;;;;;;5014611;28;20022;-44
2023/12/22 04:36:48;;;;;;;3.17;0.70;;;;;;;;;;5014705;28;20183;-43
2023/12/22 04:39:15;;;;;;;2.88;0.82;;;;;;;;;;5014669;28;20030;-43
2023/12/22 04:41:42;;;;;;;4.13;0.75;;;;;;;;;;5014522;28;20034;-44
2023/12/22 04:44:09;;;;;;;4.75;0.70;;;;;;;;;;5014548;28;20038;-43
2023/12/22 04:46:36;;;;;;;1.10;0.52;;;;;;;;;;5014386;28;20026;-43
2023/12/22 04:49:02;;;;;;;2.13;0.70;;;;;;;;;;5014491;28;20033;-43
2023/12/22 04:51:30;;;;;;;4.20;0.50;;;;;;;;;;5014203;28;20046;-43
2023/12/22 04:53:57;;;;;;;4.47;0.40;;;;;;;;;;5014337;28;20034;-44
2023/12/22 04:56:24;;;;;;;1.20;0.32;;;;;;;;;;5014100;28;20491;-45
2023/12/22 04:58:51;;;;;;;3.45;0.60;;;;;;;;;;5014320;28;20038;-43
2023/12/22 05:01:19;;;;;;;2.95;0.52;;;;;;;;;;5014161;28;20036;-44
2023/12/22 05:03:46;;;;;;;2.22;0.50;;;;;;;;;;5013852;28;20038;-44
2023/12/22 05:06:16;;;;;;;3.35;0.47;;;;;;;;;;5014040;28;20116;-44
2023/12/22 05:08:43;;;;;;;0.75;0.40;;;;;;;;;;5014083;28;20361;-43
2023/12/22 05:11:10;;;;;;;2.15;0.50;;;;;;;;;;4996269;28;20034;-43
2023/12/22 05:13:37;;;;;;;1.95;0.47;;;;;;;;;;5013997;28;20030;-43
2023/12/22 05:16:04;;;;;;;1.88;0.40;;;;;;;;;;5013869;28;20033;-45
2023/12/22 05:18:31;;;;;;;6.35;0.60;;;;;;;;;;5013800;28;20034;-44
2023/12/22 05:20:58;;;;;;;2.70;0.50;;;;;;;;;;5013813;28;20044;-43
2023/12/22 05:23:25;;;;;;;2.47;0.75;;;;;;;;;;5013733;28;20029;-44
2023/12/22 05:25:52;;;;;;;4.30;0.70;;;;;;;;;;5013620;28;20109;-46
2023/12/22 05:28:20;;;;;;;1.80;0.70;;;;;;;;;;5013684;28;20040;-45
2023/12/22 05:30:47;;;;;;;2.47;0.38;;;;;;;;;;5013544;28;20125;-43
2023/12/22 05:33:14;;;;;;;2.92;0.63;;;;;;;;;;5013608;28;20022;-44
2023/12/22 05:35:41;;;;;;;2.42;0.57;;;;;;;;;;5013369;28;20026;-44
2023/12/22 05:38:08;;;;;;;3.20;0.50;;;;;;;;;;5013216;28;20080;-43
2023/12/22 05:40:35;;;;;;;2.83;0.55;;;;;;;;;;5013473;28;20443;-43
2023/12/22 05:43:02;;;;;;;1.35;0.40;;;;;;;;;;5013297;28;20034;-43
2023/12/22 05:45:29;;;;;;;3.22;0.68;;;;;;;;;;5013326;28;20065;-43
2023/12/22 05:47:56;;;;;;;5.38;0.80;;;;;;;;;;5013284;28;20483;-43
2023/12/22 05:50:23;;;;;;;2.55;0.40;;;;;;;;;;5013182;28;20132;-44
2023/12/22 05:52:50;;;;;;;1.45;0.50;;;;;;;;;;5013248;28;20022;-43
2023/12/22 05:55:17;;;;;;;2.47;0.50;;;;;;;;;;5012934;28;20056;-43
2023/12/22 05:57:44;;;;;;;4.28;0.40;;;;;;;;;;5013179;28;20029;-44
2023/12/22 06:00:12;;;;;;;1.15;0.50;;;;;;;;;;5013034;28;20519;-43
2023/12/22 06:02:39;;;;;;;2.17;0.40;;;;;;;;;;4995227;28;20058;-43
2023/12/22 06:05:06;;;;;;;1.30;0.30;;;;;;;;;;4993334;28;20624;-43
2023/12/22 06:07:33;;;;;;;2.08;0.30;;;;;;;;;;4993382;28;20022;-43
2023/12/22 06:10:00;;;;;;;1.52;0.40;;;;;;;;;;4993208;28;20089;-43
2023/12/22 06:12:27;;;;;;;0.90;0.30;;;;;;;;;;4993173;28;20026;-44
2023/12/22 06:14:54;;;;;;;0.63;0.20;;;;;;;;;;4975623;28;20161;-43
2023/12/22 06:17:21;;;;;;;0.85;0.30;;;;;;;;;;4993118;28;20018;-44
2023/12/22 06:19:48;;;;;;;0.40;0.20;;;;;;;;;;4993165;28;20029;-44
2023/12/22 06:22:14;;;;;;;0.68;0.28;;;;;;;;;;4992951;28;20101;-43
2023/12/22 06:24:41;;;;;;;2.33;0.35;;;;;;;;;;4992909;28;20030;-43
2023/12/22 06:27:08;;;;;;;1.35;0.40;;;;;;;;;;4993042;28;20543;-44
2023/12/22 06:29:35;;;;;;;1.83;0.50;;;;;;;;;;4992965;28;20105;-43
2023/12/22 06:32:03;;;;;;;1.40;0.40;;;;;;;;;;4992861;28;20476;-44
2023/12/22 06:34:30;;;;;;;2.10;0.32;;;;;;;;;;4992665;28;20041;-45
2023/12/22 06:36:57;;;;;;;1.33;0.38;;;;;;;;;;4975252;28;20034;-44
2023/12/22 06:39:24;;;;;;;3.85;0.28;;;;;;;;;;4992819;28;20033;-44
2023/12/22 06:41:51;;;;;;;0.90;0.30;;;;;;;;;;4992802;28;20030;-45
2023/12/22 06:44:18;;;;;;;0.68;0.30;;;;;;;;;;4992663;28;20054;-43
2023/12/22 06:46:44;;;;;;;0.20;0.20;;;;;;;;;;4992700;28;20053;-43
2023/12/22 06:49:11;;;;;;;0.50;0.30;;;;;;;;;;4991869;28;20022;-43
2023/12/22 06:51:38;;;;;;;1.05;0.40;;;;;;;;;;4992732;28;20038;-44
2023/12/22 06:54:05;;;;;;;1.27;0.20;;;;;;;;;;4992526;28;20484;-43
2023/12/22 06:56:33;;;;;;;0.60;0.40;;;;;;;;;;4992271;28;20082;-44
2023/12/22 06:59:00;;;;;;;2.25;0.40;;;;;;;;;;4992409;28;20539;-43
2023/12/22 07:01:27;;;;;;;1.15;0.38;;;;;;;;;;4992505;28;20041;-43
2023/12/22 07:03:54;;;;;;;2.20;0.30;;;;;;;;;;4992418;28;20038;-44
2023/12/22 07:06:22;;;;;;;1.50;0.30;;;;;;;;;;4992418;28;20037;-44
2023/12/22 07:11:43;;;;;;;0.88;0.30;;;;;;;;;;4945953;23;20059;-39
2023/12/22 07:14:10;;;;;;;1.02;0.38;;;;;;;;;;4915517;29;20043;-38
2023/12/22 07:16:37;;;;;;;1.70;0.35;;;;;;;;;;4915509;29;20123;-40
2023/12/22 07:19:05;;;;;;;1.08;0.28;;;;;;;;;;4933940;29;20035;-39
2023/12/22 07:21:32;;;;;;;2.25;0.40;;;;;;;;;;4934304;29;20492;-40
2023/12/22 07:24:00;;;;;;;0.82;0.30;;;;;;;;;;4934473;29;20035;-40
2023/12/22 07:26:27;;;;;;;0.70;0.30;;;;;;;;;;4934331;29;20406;-40
2023/12/22 07:28:54;;;;;;;0.80;0.30;;;;;;;;;;4934499;29;20090;-40
2023/12/22 07:31:21;;;;;;;0.82;0.30;;;;;;;;;;4934301;29;20031;-40
2023/12/22 07:33:48;;;;;;;0.82;0.50;;;;;;;;;;4934283;29;20043;-40
2023/12/22 07:36:15;;;;;;;0.32;0.20;;;;;;;;;;4934406;29;20071;-40
2023/12/22 07:38:42;;;;;;;0.80;0.38;;;;;;;;;;4934313;29;20040;-40
2023/12/22 07:41:09;;;;;;;1.15;0.28;;;;;;;;;;4934258;29;20039;-40
2023/12/22 07:43:36;;;;;;;0.45;0.22;;;;;;;;;;4934264;29;20031;-40
2023/12/22 07:46:03;;;;;;;0.30;0.30;;;;;;;;;;4934259;29;20550;-40
2023/12/22 07:48:30;;;;;;;0.52;0.30;;;;;;;;;;4934253;29;20044;-40
2023/12/22 07:50:57;;;;;;;0.98;0.30;;;;;;;;;;4934077;29;20035;-40
2023/12/22 07:53:24;;;;;;;1.33;0.22;;;;;;;;;;4934200;29;20417;-40
2023/12/22 07:55:51;;;;;;;0.45;0.30;;;;;;;;;;4934184;29;20028;-40
2023/12/22 07:58:19;;;;;;;0.77;0.40;;;;;;;;;;4934160;29;20494;-40
2023/12/22 08:00:46;;;;;;;0.77;0.30;;;;;;;;;;4936679;29;20410;-40
2023/12/22 08:03:13;;;;;;;0.88;0.32;;;;;;;;;;4937804;29;20020;-40
2023/12/22 08:05:40;;;;;;;1.25;0.30;;;;;;;;;;4937766;29;20028;-40
2023/12/22 08:08:07;;;;;;;1.52;0.50;;;;;;;;;;4937764;29;20121;-40
2023/12/22 08:10:34;;;;;;;1.63;0.40;;;;;;;;;;4937246;29;20035;-40
2023/12/22 08:13:00;;;;;;;2.15;0.40;;;;;;;;;;4937586;29;20481;-40
2023/12/22 08:15:27;;;;;;;0.80;0.35;;;;;;;;;;4920302;29;20035;-40
2023/12/22 08:17:54;;;;;;;2.38;0.50;;;;;;;;;;4937571;29;20464;-40
2023/12/22 08:20:22;;;;;;;0.77;0.40;;;;;;;;;;4937383;29;20122;-40
2023/12/22 08:22:50;;;;;;;1.00;0.40;;;;;;;;;;4937410;29;20032;-40
2023/12/22 08:25:20;;;;;;;0.88;0.30;;;;;;;;;;4937256;29;20040;-39
2023/12/22 08:27:47;;;;;;;1.27;0.30;;;;;;;;;;4937256;29;20035;-38
2023/12/22 08:30:17;;;;;;;0.93;0.40;;;;;;;;;;4937149;29;20119;-39
2023/12/22 08:32:44;;;;;;;1.10;0.55;;;;;;;;;;4937273;29;20091;-38
2023/12/22 08:35:11;;;;;;;1.40;0.30;;;;;;;;;;4937242;29;20716;-39
2023/12/22 08:37:38;;;;;;;0.90;0.30;;;;;;;;;;4937197;29;20047;-38
2023/12/22 08:40:05;;;;;;;0.55;0.32;;;;;;;;;;4937083;29;20459;-38
2023/12/22 08:42:32;;;;;;;1.05;0.30;;;;;;;;;;4936957;29;20039;-39
2023/12/22 08:44:59;;;;;;;1.45;0.50;;;;;;;;;;4937059;29;20393;-38
2023/12/22 08:47:26;;;;;;;1.17;0.35;;;;;;;;;;4937029;29;20038;-38
2023/12/22 08:49:53;;;;;;;2.38;0.32;;;;;;;;;;4936785;29;20034;-39
2023/12/22 08:52:20;;;;;;;0.65;0.40;;;;;;;;;;4936906;29;20106;-39
2023/12/22 08:54:47;;;;;;;1.00;0.32;;;;;;;;;;4936919;29;20030;-38
2023/12/22 08:57:14;;;;;;;0.30;0.30;;;;;;;;;;4936908;29;20023;-39
2023/12/22 08:59:41;;;;;;;0.40;0.30;;;;;;;;;;4936685;29;20043;-39
2023/12/22 09:02:08;;;;;;;0.73;0.40;;;;;;;;;;4936763;29;20027;-38
2023/12/22 09:04:35;;;;;;;1.20;0.40;;;;;;;;;;4936712;29;20027;-38
2023/12/22 09:07:02;;;;;;;0.93;0.32;;;;;;;;;;4936668;29;20043;-38
2023/12/22 09:09:29;;;;;;;1.10;0.40;;;;;;;;;;4936580;29;20027;-39
2023/12/22 09:11:56;;;;;;;2.97;0.50;;;;;;;;;;4935563;29;20082;-39
2023/12/22 09:14:23;;;;;;;0.40;0.30;;;;;;;;;;4936388;29;20052;-38
2023/12/22 09:16:50;;;;;;;1.27;0.40;;;;;;;;;;4936460;29;20059;-38
2023/12/22 09:19:17;;;;;;;0.65;0.30;;;;;;;;;;4936343;29;20040;-39
2023/12/22 09:21:44;;;;;;;2.05;0.30;;;;;;;;;;4936307;29;20438;-39
2023/12/22 09:24:12;;;;;;;3.20;0.40;;;;;;;;;;4936334;29;20082;-40
2023/12/22 09:26:39;;;;;;;2.72;0.38;;;;;;;;;;4936355;29;20103;-40
2023/12/22 09:29:06;;;;;;;0.60;0.50;;;;;;;;;;4936313;29;20046;-40
2023/12/22 09:31:33;;;;;;;1.42;0.60;;;;;;;;;;4936064;29;20055;-40
2023/12/22 09:34:00;;;;;;;0.30;0.30;;;;;;;;;;4936134;29;20038;-40
2023/12/22 09:36:27;;;;;;;0.52;0.32;;;;;;;;;;4936130;29;20037;-41
2023/12/22 09:38:54;;;;;;;0.40;0.30;;;;;;;;;;4936060;29;20461;-40
2023/12/22 09:41:21;;;;;;;1.40;0.30;;;;;;;;;;4935919;29;20062;-39
2023/12/22 09:43:50;;;;;;;0.93;0.50;;;;;;;;;;4935889;29;20042;-40
2023/12/22 09:46:19;;;;;;;2.33;0.30;;;;;;;;;;4935678;29;20036;-40
2023/12/22 09:48:46;;;;;;;0.88;0.40;;;;;;;;;;4935899;29;20031;-40
2023/12/22 09:51:14;;;;;;;1.38;0.38;;;;;;;;;;4935703;29;20397;-40
2023/12/22 09:53:41;;;;;;;0.88;0.40;;;;;;;;;;4935663;29;20036;-40
2023/12/22 09:56:08;;;;;;;0.80;0.30;;;;;;;;;;4935735;29;20035;-40
2023/12/22 09:58:36;;;;;;;0.70;0.32;;;;;;;;;;4912980;29;20047;-40
2023/12/22 10:01:05;;;;;;;0.60;0.40;;;;;;;;;;4927494;29;20497;-40
2023/12/22 10:03:34;;;;;;;0.60;0.30;;;;;;;;;;4916078;29;20040;-40
2023/12/22 10:06:02;;;;;;;0.93;0.50;;;;;;;;;;4916619;29;20036;-40
2023/12/22 10:08:28;;;;;;;0.95;0.30;;;;;;;;;;4916407;29;20719;-40
2023/12/22 10:10:56;;;;;;;0.90;0.38;;;;;;;;;;4916037;29;20402;-39
2023/12/22 10:13:23;;;;;;;0.57;0.30;;;;;;;;;;4916479;29;20061;-38
2023/12/22 10:15:50;;;;;;;1.08;0.40;;;;;;;;;;4916357;29;20043;-38
2023/12/22 10:18:18;;;;;;;1.85;0.40;;;;;;;;;;4916378;29;20032;-39
2023/12/22 10:20:45;;;;;;;2.15;0.30;;;;;;;;;;4916297;29;20034;-39
2023/12/22 10:23:12;;;;;;;2.05;0.50;;;;;;;;;;4916249;29;20055;-39
2023/12/22 10:25:41;;;;;;;0.73;0.28;;;;;;;;;;4916244;29;20032;-38
2023/12/22 10:28:11;;;;;;;0.45;0.30;;;;;;;;;;4916202;29;20058;-39
2023/12/22 10:30:38;;;;;;;0.73;0.30;;;;;;;;;;4915901;29;20507;-39
2023/12/22 10:33:05;;;;;;;0.75;0.30;;;;;;;;;;4916051;29;20044;-39
2023/12/22 10:35:32;;;;;;;1.73;0.40;;;;;;;;;;4915657;29;20032;-39
2023/12/22 10:38:00;;;;;;;0.85;0.50;;;;;;;;;;4910278;29;20037;-39
2023/12/22 10:40:27;;;;;;;0.88;0.40;;;;;;;;;;4904172;29;20123;-39
2023/12/22 10:42:54;;;;;;;1.23;0.50;;;;;;;;;;4897008;29;20033;-39
2023/12/22 10:45:21;;;;;;;0.90;0.50;;;;;;;;;;4899105;29;20028;-40
2023/12/22 10:47:53;;;;;;;2.45;0.50;;;;;;;;;;4883429;29;20115;-40
2023/12/22 10:50:20;;;;;;;0.90;0.47;;;;;;;;;;4901244;29;20028;-38
2023/12/22 10:52:51;;;;;;;1.15;0.50;;;;;;;;;;4915329;29;20036;-38
2023/12/22 10:55:21;;;;;;;4.53;0.60;;;;;;;;;;4904810;29;20083;-40
2023/12/22 10:57:48;;;;;;;2.95;0.52;;;;;;;;;;4915131;29;20082;-39
2023/12/22 11:00:21;;;;;;;4.35;0.60;;;;;;;;;;4909322;29;20072;-39
2023/12/22 11:02:57;;;;;;;0.88;0.35;;;;;;;;;;4905876;29;20479;-37
2023/12/22 11:05:26;;;;;;;3.60;0.65;;;;;;;;;;4906623;29;20064;-39
2023/12/22 11:07:55;;;;;;;1.90;0.40;;;;;;;;;;4906444;29;20084;-38
2023/12/22 11:10:22;;;;;;;1.15;0.50;;;;;;;;;;4904556;29;20494;-38
2023/12/22 11:12:49;;;;;;;1.63;0.50;;;;;;;;;;4904174;29;20076;-39
2023/12/22 11:15:17;;;;;;;4.53;0.73;;;;;;;;;;4910345;29;20032;-39
2023/12/22 11:17:45;;;;;;;3.10;0.60;;;;;;;;;;4914477;29;20032;-38
2023/12/22 11:20:15;;;;;;;5.60;0.50;;;;;;;;;;4914729;29;20024;-38
2023/12/22 11:22:43;;;;;;;7.15;0.93;;;;;;;;;;4915436;29;20043;-38
2023/12/22 11:25:10;;;;;;;5.53;0.70;;;;;;;;;;4915407;29;20036;-38
2023/12/22 11:27:38;;;;;;;5.75;0.82;;;;;;;;;;4915444;29;20036;-37
2023/12/22 11:30:09;;;;;;;79.70;5.47;;;;;;;;;;4909243;29;20096;-40
2023/12/22 11:32:36;;;;;;;69.15;3.85;;;;;;;;;;4913329;29;20078;-40
2023/12/22 11:35:03;;;;;;;206.45;13.73;;;;;;;;;;4916861;29;20067;-40
2023/12/22 11:37:33;;;;;;;91.88;6.53;;;;;;;;;;4918027;29;20089;-41
2023/12/22 11:40:00;;;;;;;53.35;4.82;;;;;;;;;;4912355;29;20048;-40
2023/12/22 11:42:31;;;;;;;64.90;4.80;;;;;;;;;;4917324;29;20036;-40
2023/12/22 11:44:58;;;;;;;40.30;4.00;;;;;;;;;;4918345;29;20036;-40
2023/12/22 11:47:28;;;;;;;32.65;3.83;;;;;;;;;;4918344;29;20028;-40
2023/12/22 11:49:56;;;;;;;22.75;2.60;;;;;;;;;;4916085;29;20044;-39
2023/12/22 11:52:30;;;;;;;14.30;1.70;;;;;;;;;;4918795;29;20028;-44
2023/12/22 11:54:58;;;;;;;13.07;1.88;;;;;;;;;;4916942;29;20169;-41
2023/12/22 11:57:35;;;;;;;8.98;1.13;;;;;;;;;;4918372;29;20032;-43
2023/12/22 12:00:35;;;;;;;16.58;2.10;;;;;;;;;;4935586;29;20122;-41
2023/12/22 12:03:06;;;;;;;21.85;1.83;;;;;;;;;;4927348;29;20048;-41
2023/12/22 12:05:33;;;;;;;10.15;1.95;;;;;;;;;;4917913;29;20032;-41
2023/12/22 12:08:09;;;;;;;36.10;2.38;;;;;;;;;;4918008;29;20036;-41
2023/12/22 12:10:37;;;;;;;18.02;1.42;;;;;;;;;;4917555;29;20150;-42
2023/12/22 12:13:07;;;;;;;16.17;1.65;;;;;;;;;;4918206;29;20039;-42
2023/12/22 12:15:35;;;;;;;12.82;1.13;;;;;;;;;;4918434;29;20048;-42
2023/12/22 12:18:02;;;;;;;8.30;0.95;;;;;;;;;;4918378;29;20063;-41
2023/12/22 12:20:30;;;;;;;9.80;1.10;;;;;;;;;;4900483;29;20451;-42
2023/12/22 12:22:57;;;;;;;12.05;1.35;;;;;;;;;;4917732;29;20107;-41
2023/12/22 12:25:27;;;;;;;4.15;0.93;;;;;;;;;;4917744;29;20090;-41
2023/12/22 12:28:07;;;;;;;9.40;0.90;;;;;;;;;;4917529;29;20096;-42
2023/12/22 12:30:35;;;;;;;4.53;0.70;;;;;;;;;;4917360;29;20123;-42
2023/12/22 12:33:09;;;;;;;3.58;0.85;;;;;;;;;;4917476;29;20087;-42
2023/12/22 12:35:36;;;;;;;3.20;0.57;;;;;;;;;;4917592;29;20044;-43
2023/12/22 12:38:07;;;;;;;5.95;0.90;;;;;;;;;;4917518;29;20550;-41
2023/12/22 12:40:35;;;;;;;12.15;1.08;;;;;;;;;;4917525;29;20060;-43
2023/12/22 12:43:02;;;;;;;6.75;1.00;;;;;;;;;;4917409;29;20047;-42
2023/12/22 12:45:29;;;;;;;6.85;0.70;;;;;;;;;;4916918;29;20043;-42
2023/12/22 12:48:03;;;;;;;8.57;0.77;;;;;;;;;;4916890;29;20040;-42
2023/12/22 12:50:33;;;;;;;3.42;0.70;;;;;;;;;;4915457;29;20031;-41
2023/12/22 12:53:00;;;;;;;2.78;0.50;;;;;;;;;;4917425;29;20043;-41
2023/12/22 12:55:28;;;;;;;1.00;0.50;;;;;;;;;;4917427;29;20035;-42
2023/12/22 12:57:56;;;;;;;2.50;0.50;;;;;;;;;;4917219;29;20055;-43
2023/12/22 13:00:37;;;;;;;1.63;0.40;;;;;;;;;;4917006;29;20032;-41
2023/12/22 13:03:05;;;;;;;1.35;0.30;;;;;;;;;;4917510;29;20036;-42
2023/12/22 13:05:32;;;;;;;5.20;0.63;;;;;;;;;;4917634;29;20043;-41
2023/12/22 13:08:09;;;;;;;10.73;0.98;;;;;;;;;;4917295;29;20039;-43
2023/12/22 13:10:36;;;;;;;7.97;1.10;;;;;;;;;;4916949;29;20076;-42
2023/12/22 13:13:03;;;;;;;10.15;1.10;;;;;;;;;;4935353;29;20050;-41
2023/12/22 13:15:30;;;;;;;7.10;0.80;;;;;;;;;;4936249;29;20055;-42
2023/12/22 13:17:57;;;;;;;7.57;0.65;;;;;;;;;;4936246;29;20409;-42
2023/12/22 13:20:25;;;;;;;8.90;0.90;;;;;;;;;;4931931;29;20039;-41
2023/12/22 13:22:52;;;;;;;4.45;0.70;;;;;;;;;;4916616;29;20032;-41
2023/12/22 13:25:21;;;;;;;2.90;0.57;;;;;;;;;;4916147;29;20142;-41
2023/12/22 13:27:48;;;;;;;1.40;0.35;;;;;;;;;;4916446;29;20488;-42
2023/12/22 13:30:33;;;;;;;1.73;0.40;;;;;;;;;;4916507;29;20493;-41
2023/12/22 13:33:00;;;;;;;2.28;0.75;;;;;;;;;;4915054;29;20028;-42
2023/12/22 13:35:28;;;;;;;4.53;0.47;;;;;;;;;;4915870;29;20083;-43
2023/12/22 13:37:55;;;;;;;3.60;0.40;;;;;;;;;;4917139;29;20138;-44
2023/12/22 13:40:22;;;;;;;3.58;0.50;;;;;;;;;;4914277;29;20108;-42
2023/12/22 13:42:59;;;;;;;2.08;0.57;;;;;;;;;;4916102;29;20032;-42
2023/12/22 13:45:26;;;;;;;0.88;0.40;;;;;;;;;;4898530;29;20047;-44
2023/12/22 13:47:53;;;;;;;2.63;0.40;;;;;;;;;;4909949;29;20088;-44
2023/12/22 13:50:23;;;;;;;2.00;0.30;;;;;;;;;;4916570;29;20041;-43
2023/12/22 13:52:51;;;;;;;1.38;0.50;;;;;;;;;;4910920;29;20131;-44
2023/12/22 13:55:19;;;;;;;2.90;0.50;;;;;;;;;;4916246;29;20032;-44
2023/12/22 13:57:45;;;;;;;3.13;0.50;;;;;;;;;;4911389;29;20759;-43
2023/12/22 14:00:22;;;;;;;1.27;0.47;;;;;;;;;;4915489;29;20372;-43
2023/12/22 14:02:49;;;;;;;1.75;0.40;;;;;;;;;;4893979;29;20043;-43
2023/12/22 14:05:16;;;;;;;1.13;0.50;;;;;;;;;;4916234;29;20081;-44
2023/12/22 14:07:47;;;;;;;3.17;0.65;;;;;;;;;;4911952;29;20044;-45
2023/12/22 14:10:14;;;;;;;6.30;1.35;;;;;;;;;;4912042;29;20047;-42
2023/12/22 14:12:41;;;;;;;11.45;2.47;;;;;;;;;;4903244;29;20028;-43
2023/12/22 14:15:08;;;;;;;12.65;2.40;;;;;;;;;;4891221;29;20028;-43
2023/12/22 14:17:35;;;;;;;11.55;2.47;;;;;;;;;;4909015;29;20364;-44
2023/12/22 14:20:04;;;;;;;9.68;2.20;;;;;;;;;;4915734;29;20107;-43
2023/12/22 14:22:33;;;;;;;10.93;2.00;;;;;;;;;;4896253;29;20044;-45
2023/12/22 14:25:01;;;;;;;10.45;2.08;;;;;;;;;;4896667;29;20036;-43
2023/12/22 14:27:28;;;;;;;8.27;1.40;;;;;;;;;;4884926;29;20048;-43
2023/12/22 14:29:54;;;;;;;6.47;1.40;;;;;;;;;;4896861;29;20028;-43
2023/12/22 14:32:22;;;;;;;8.48;1.52;;;;;;;;;;4896524;29;20031;-43
2023/12/22 14:34:50;;;;;;;11.15;1.23;;;;;;;;;;4896714;29;20080;-43
2023/12/22 14:37:17;;;;;;;3.67;0.70;;;;;;;;;;4895983;29;20775;-41
2023/12/22 14:39:47;;;;;;;9.43;0.90;;;;;;;;;;4896755;29;20036;-43
2023/12/22 14:42:14;;;;;;;9.25;1.05;;;;;;;;;;4887148;29;20040;-43